METAR Data
IDs: Format: Raw Decoded Include TAF

Data at: 1155 UTC 23 Sep 2018

KRIC 231130Z 34007KT 10SM OVC006 17/16 A3014 RMK AO2 CIG 004V008 T01720161
KRIC 231104Z 34007KT 10SM OVC004 17/16 A3013 RMK AO2 T01720161
KRIC 231054Z 33006KT 10SM OVC006 17/16 A3013 RMK AO2 RAE15 CIG 004V009 SLP206 P0001 T01720161
KRIC 230954Z 02006KT 3SM RA BR OVC006 17/16 A3012 RMK AO2 SLP204 P0024 T01670161
KRIC 230932Z 02007KT 7SM -RA BKN006 OVC025 17/16 A3012 RMK AO2 P0014 T01720161
KRIC 230906Z 03008KT 2SM +RA BR SCT006 BKN015 OVC040 17/16 A3012 RMK AO2 VIS 1 1/4V4 P0009 T01670161
KRIC 230854Z 03007KT 7SM -RA BKN006 OVC016 17/16 A3012 RMK AO2 SLP203 P0048 60060 T01720161 56007
KRIC 230838Z 36007KT 3SM +RA BR BKN006 BKN013 OVC018 17/16 A3013 RMK AO2 P0048 T01670161
KRIC 230827Z 35007KT 1 1/2SM +RA BR BKN006 BKN013 OVC018 17/16 A3013 RMK AO2 P0036 T01720161
KRIC 230754Z 02009KT 6SM RA BR BKN006 OVC013 18/17 A3012 RMK AO2 SLP203 P0002 T01780167
KRIC 230742Z 02008KT 10SM -RA SCT006 BKN010 OVC025 18/17 A3012 RMK AO2 CIG 008V013 P0001 T01780167
KRIC 230709Z 03007KT 9SM -RA FEW006 FEW016 OVC022 18/17 A3012 RMK AO2 P0000 T01780167
KRIC 230654Z 02007KT 10SM -RA FEW016 OVC021 18/17 A3012 RMK AO2 SLP204 P0010 T01780167
KRIC 230554Z 02006KT 7SM -RA OVC019 18/17 A3014 RMK AO2 SLP210 P0001 60001 T01830167 10233 20183 58002
KRIC 230454Z 01008KT 10SM -RA OVC017 19/16 A3015 RMK AO2 RAB49 SLP214 P0000 T01940161 402940194
KRIC 230354Z 05012KT 10SM OVC019 21/17 A3015 RMK AO2 SLP213 T02060167
KRIC 230254Z 03009KT 10SM OVC022 21/17 A3015 RMK AO2 SLP212 T02110167 51012
KRIC 230237Z 02009KT 10SM BKN023 BKN070 21/17 A3014 RMK AO2 T02110167
KRIC 230154Z 04010KT 10SM SCT043 BKN065 BKN150 22/17 A3015 RMK AO2 SLP212 T02170167
KRIC 230054Z 03009KT 10SM FEW025 OVC039 23/18 A3014 RMK AO2 SLP210 T02280178
KRIC 222354Z 02008KT 10SM FEW048 BKN070 23/19 A3011 RMK AO2 SLP200 T02330194 10289 20233 53010
KRIC 222254Z 02008KT 10SM FEW048 BKN065 24/19 A3010 RMK AO2 SLP197 T02440194
KRIC 222154Z 04011KT 10SM BKN044 BKN065 26/20 A3009 RMK AO2 SLP193 T02560200
KRIC 222054Z 04011KT 10SM FEW038 SCT043 BKN060 26/21 A3008 RMK AO2 SLP190 T02610211 55003
KRIC 221954Z 04008KT 10SM FEW034 SCT042 BKN055 28/21 A3008 RMK AO2 SLP189 T02780211
KRIC 221854Z 04007KT 10SM SCT022 BKN037 OVC048 28/21 A3008 RMK AO2 SLP190 T02780211
KRIC 221754Z 06008KT 10SM SCT022 BKN032 29/22 A3009 RMK AO2 SLP194 T02890217 10294 20211 58004
KRIC 221654Z 05009KT 10SM SCT022 BKN031 29/21 A3010 RMK AO2 SLP197 T02890211
KRIC 221554Z 05011KT 10SM SCT015 BKN030 27/21 A3010 RMK AO2 SLP196 T02720211
KRIC 221454Z 01010KT 10SM FEW015 28/21 A3011 RMK AO2 SLP198 T02780211 51008
KRIC 221354Z 34005KT 10SM FEW012 26/22 A3010 RMK AO2 SLP196 T02560217
KRIC 221328Z 34005KT 10SM SCT012 SCT180 24/21 A3010 RMK AO2 T02440211
KRIC 221301Z COR 34005KT 10SM BKN013 BKN120 23/21 A3010 RMK AO2 T02330206
KRIC 221254Z 34005KT 10SM SCT013 BKN120 23/21 A3010 RMK AO2 SLP196 T02330206
KRIC 221154Z 00000KT 8SM CLR 21/20 A3008 RMK AO2 SLP190 70001 T02110200 10217 20200 53010
KRIC 221054Z 21005KT 9SM CLR 20/19 A3007 RMK AO2 SLP185 T02000189
KRIC 220954Z 20005KT 10SM CLR 21/19 A3005 RMK AO2 SLP181 T02060194
KRIC 220854Z 21007KT 10SM CLR 21/19 A3005 RMK AO2 SLP180 T02110194 56012
KRIC 220754Z 21007KT 10SM CLR 22/19 A3005 RMK AO2 SLP180 T02170194
KRIC 220654Z 21006KT 10SM CLR 21/19 A3007 RMK AO2 SLP186 T02110194
KRIC 220554Z 20004KT 10SM CLR 22/19 A3009 RMK AO2 SLP191 T02170194 10233 20211 58006
KRIC 220454Z 20007KT 10SM CLR 22/20 A3010 RMK AO2 SLP195 T02220200 402780189
KRIC 220354Z 21008KT 10SM CLR 23/20 A3011 RMK AO2 SLP198 T02280200
KRIC 220254Z 20008KT 10SM FEW300 23/20 A3010 RMK AO2 SLP197 T02280200 51006
KRIC 220154Z 18008KT 10SM FEW300 23/21 A3009 RMK AO2 SLP194 T02280206
KRIC 220054Z 19007KT 10SM CLR 22/21 A3010 RMK AO2 SLP196 T02220206